createdAt,value
2022-11-25T00:00:31.745Z,1018.9275171319999
2022-11-25T00:01:31.876Z,1018.7243344039999
2022-11-25T00:02:31.835Z,1018.7243344039999
2022-11-25T00:03:31.821Z,1018.7243344039999
2022-11-25T00:04:31.742Z,1019.0291084959999
2022-11-25T00:05:31.777Z,1018.9275171319999
2022-11-25T00:06:31.770Z,1018.9275171319999
2022-11-25T00:07:31.812Z,1018.9275171319999
2022-11-25T00:08:32.686Z,1019.0291084959999
2022-11-25T00:09:32.750Z,1019.0291084959999
2022-11-25T00:10:32.755Z,1018.8259257679998
2022-11-25T00:11:32.804Z,1019.0291084959999
2022-11-25T00:12:32.770Z,1018.9275171319999
2022-11-25T00:13:32.759Z,1018.9275171319999
2022-11-25T00:14:32.940Z,1018.9275171319999
2022-11-25T00:15:32.743Z,1019.0291084959999
2022-11-25T00:16:32.914Z,1019.0291084959999
2022-11-25T00:17:32.771Z,1019.0291084959999
2022-11-25T00:18:32.762Z,1018.9275171319999
2022-11-25T00:19:32.857Z,1018.9275171319999
2022-11-25T00:20:32.809Z,1019.2322912239999
2022-11-25T00:21:32.741Z,1018.9275171319999
2022-11-25T00:22:32.752Z,1019.0291084959999
2022-11-25T00:23:33.493Z,1019.0291084959999
2022-11-25T00:24:32.912Z,1019.2322912239999
2022-11-25T00:25:32.749Z,1019.2322912239999
2022-11-25T00:26:32.802Z,1019.0291084959999
2022-11-25T00:27:32.751Z,1018.9275171319999
2022-11-25T00:28:32.772Z,1019.2322912239999
2022-11-25T00:29:32.772Z,1019.1306998599998
2022-11-25T00:30:32.714Z,1019.1306998599998
2022-11-25T00:31:32.846Z,1019.1306998599998
2022-11-25T00:32:32.765Z,1019.0291084959999
2022-11-25T00:33:32.766Z,1019.0291084959999
2022-11-25T00:34:32.920Z,1019.1306998599998
2022-11-25T00:35:32.746Z,1019.2322912239999
2022-11-25T00:36:32.749Z,1018.9275171319999
2022-11-25T00:37:32.795Z,1019.1306998599998
2022-11-25T00:38:32.704Z,1019.1306998599998
2022-11-25T00:39:32.732Z,1019.3338825879999
2022-11-25T00:40:32.772Z,1018.9275171319999
2022-11-25T00:41:32.751Z,1019.0291084959999
2022-11-25T00:42:32.714Z,1019.0291084959999
2022-11-25T00:43:32.761Z,1019.0291084959999
2022-11-25T00:44:33.067Z,1019.0291084959999
2022-11-25T00:45:32.853Z,1019.1306998599998
2022-11-25T00:46:32.747Z,1018.9275171319999
2022-11-25T00:47:32.751Z,1019.1306998599998
2022-11-25T00:48:32.763Z,1019.1306998599998
2022-11-25T00:49:32.756Z,1018.9275171319999
2022-11-25T00:50:32.773Z,1019.1306998599998
2022-11-25T00:51:32.777Z,1018.9275171319999
2022-11-25T00:52:32.771Z,1019.1306998599998
2022-11-25T00:53:32.771Z,1019.1306998599998
2022-11-25T00:54:32.860Z,1019.0291084959999
2022-11-25T00:55:32.748Z,1019.0291084959999
2022-11-25T00:56:32.761Z,1019.0291084959999
2022-11-25T00:57:32.768Z,1019.0291084959999
2022-11-25T00:58:32.742Z,1019.1306998599998
2022-11-25T00:59:32.740Z,1019.2322912239999
2022-11-25T01:00:32.751Z,1019.0291084959999
2022-11-25T01:01:32.829Z,1019.1306998599998
2022-11-25T01:02:32.987Z,1019.0291084959999
2022-11-25T01:03:32.770Z,1019.2322912239999
2022-11-25T01:04:32.891Z,1019.2322912239999
2022-11-25T01:05:32.767Z,1019.3338825879999
2022-11-25T01:06:32.731Z,1019.435473952
2022-11-25T01:07:32.899Z,1019.1306998599998
2022-11-25T01:08:32.780Z,1019.3338825879999
2022-11-25T01:09:32.753Z,1019.2322912239999
2022-11-25T01:10:32.763Z,1019.2322912239999
2022-11-25T01:11:32.776Z,1019.435473952
2022-11-25T01:12:32.738Z,1019.3338825879999
2022-11-25T01:13:32.755Z,1019.3338825879999
2022-11-25T01:14:33.033Z,1019.3338825879999
2022-11-25T01:15:32.788Z,1019.2322912239999
2022-11-25T01:16:32.805Z,1019.0291084959999
2022-11-25T01:17:32.830Z,1018.9275171319999
2022-11-25T01:18:32.728Z,1018.9275171319999
2022-11-25T01:19:32.760Z,1019.2322912239999
2022-11-25T01:20:32.739Z,1018.9275171319999
2022-11-25T01:21:32.742Z,1019.2322912239999
2022-11-25T01:22:32.784Z,1019.3338825879999
2022-11-25T01:23:32.758Z,1019.0291084959999
2022-11-25T01:24:32.875Z,1019.1306998599998
2022-11-25T01:25:32.753Z,1019.0291084959999
2022-11-25T01:26:32.757Z,1019.3338825879999
2022-11-25T01:27:32.769Z,1019.0291084959999
2022-11-25T01:28:32.738Z,1019.3338825879999
2022-11-25T01:29:32.758Z,1019.2322912239999
2022-11-25T01:30:35.923Z,1019.2322912239999
2022-11-25T01:31:32.839Z,1019.1306998599998
2022-11-25T01:32:32.720Z,1019.2322912239999
2022-11-25T01:33:32.740Z,1019.2322912239999
2022-11-25T01:34:32.845Z,1019.2322912239999
2022-11-25T01:35:32.764Z,1019.3338825879999
2022-11-25T01:36:32.734Z,1019.1306998599998
2022-11-25T01:37:32.738Z,1019.5370653159999
2022-11-25T01:38:32.759Z,1019.0291084959999
2022-11-25T01:39:33.333Z,1019.1306998599998
2022-11-25T01:40:32.827Z,1019.1306998599998
2022-11-25T01:41:32.881Z,1019.1306998599998
2022-11-25T01:42:32.892Z,1019.0291084959999
2022-11-25T01:43:32.893Z,1019.2322912239999
2022-11-25T01:44:32.948Z,1019.2322912239999
2022-11-25T01:45:32.942Z,1019.1306998599998
2022-11-25T01:46:32.860Z,1019.2322912239999
2022-11-25T01:47:32.920Z,1019.2322912239999
2022-11-25T01:48:32.830Z,1019.435473952
2022-11-25T01:49:32.759Z,1019.2322912239999
2022-11-25T01:50:32.741Z,1019.1306998599998
2022-11-25T01:51:32.755Z,1019.3338825879999
2022-11-25T01:52:32.719Z,1019.2322912239999
2022-11-25T01:53:32.727Z,1019.3338825879999
2022-11-25T01:54:32.779Z,1019.3338825879999
2022-11-25T01:55:32.768Z,1019.3338825879999
2022-11-25T01:56:32.743Z,1019.1306998599998
2022-11-25T01:57:32.716Z,1019.1306998599998
2022-11-25T01:58:32.735Z,1019.1306998599998
2022-11-25T01:59:32.741Z,1019.2322912239999
2022-11-25T02:00:32.719Z,1019.3338825879999
2022-11-25T02:01:32.818Z,1019.2322912239999
2022-11-25T02:02:32.815Z,1019.0291084959999
2022-11-25T02:03:32.769Z,1019.3338825879999
2022-11-25T02:04:32.988Z,1019.0291084959999
2022-11-25T02:05:34.085Z,1019.0291084959999
2022-11-25T02:06:32.803Z,1018.9275171319999
2022-11-25T02:07:32.821Z,1019.0291084959999
2022-11-25T02:08:32.722Z,1019.1306998599998
2022-11-25T02:09:32.785Z,1019.2322912239999
2022-11-25T02:10:32.726Z,1019.0291084959999
2022-11-25T02:11:32.770Z,1019.435473952
2022-11-25T02:12:32.727Z,1019.1306998599998
2022-11-25T02:13:32.740Z,1019.3338825879999
2022-11-25T02:14:32.726Z,1019.0291084959999
2022-11-25T02:15:32.757Z,1019.0291084959999
2022-11-25T02:16:32.803Z,1018.9275171319999
2022-11-25T02:17:32.796Z,1019.2322912239999
2022-11-25T02:18:32.736Z,1019.3338825879999
2022-11-25T02:19:32.728Z,1019.3338825879999
2022-11-25T02:20:32.739Z,1019.2322912239999
2022-11-25T02:21:32.748Z,1019.0291084959999
2022-11-25T02:22:32.745Z,1019.2322912239999
2022-11-25T02:23:32.753Z,1019.1306998599998
2022-11-25T02:24:32.823Z,1019.3338825879999
2022-11-25T02:25:32.767Z,1019.2322912239999
2022-11-25T02:26:32.711Z,1019.2322912239999
2022-11-25T02:27:32.738Z,1019.3338825879999
2022-11-25T02:28:32.723Z,1019.1306998599998
2022-11-25T02:29:32.730Z,1019.2322912239999
2022-11-25T02:30:32.703Z,1019.435473952
2022-11-25T02:31:32.818Z,1019.1306998599998
2022-11-25T02:32:32.732Z,1019.1306998599998
2022-11-25T02:33:32.779Z,1019.1306998599998
2022-11-25T02:34:32.955Z,1019.3338825879999
2022-11-25T02:35:32.735Z,1019.435473952
2022-11-25T02:36:32.712Z,1019.1306998599998
2022-11-25T02:37:32.762Z,1019.1306998599998
2022-11-25T02:38:32.727Z,1019.1306998599998
2022-11-25T02:39:32.775Z,1019.3338825879999
2022-11-25T02:40:32.747Z,1019.3338825879999
2022-11-25T02:41:32.728Z,1019.2322912239999
2022-11-25T02:42:32.740Z,1019.435473952
2022-11-25T02:43:32.727Z,1019.3338825879999
2022-11-25T02:44:32.891Z,1019.5370653159999
2022-11-25T02:45:32.803Z,1019.2322912239999
2022-11-25T02:46:32.718Z,1019.0291084959999
2022-11-25T02:47:32.763Z,1019.2322912239999
2022-11-25T02:48:52.716Z,1019.2322912239999
2022-11-25T02:49:32.800Z,1019.1306998599998
2022-11-25T02:50:32.768Z,1019.1306998599998
2022-11-25T02:51:32.806Z,1019.2322912239999
2022-11-25T02:52:32.725Z,1019.1306998599998
2022-11-25T02:53:32.720Z,1019.2322912239999
2022-11-25T02:54:32.776Z,1019.2322912239999
2022-11-25T02:55:32.750Z,1019.3338825879999
2022-11-25T02:56:32.739Z,1019.3338825879999
2022-11-25T02:57:32.801Z,1019.5370653159999
2022-11-25T02:58:32.733Z,1019.2322912239999
2022-11-25T02:59:32.760Z,1019.435473952
2022-11-25T03:00:33.012Z,1019.435473952
2022-11-25T03:01:32.959Z,1019.435473952
2022-11-25T03:02:32.812Z,1019.435473952
2022-11-25T03:03:32.849Z,1019.3338825879999
2022-11-25T03:04:32.725Z,1019.2322912239999
2022-11-25T03:05:32.744Z,1019.5370653159999
2022-11-25T03:06:32.729Z,1019.435473952
2022-11-25T03:07:32.797Z,1019.3338825879999
2022-11-25T03:08:32.719Z,1019.3338825879999
2022-11-25T03:09:32.769Z,1019.2322912239999
2022-11-25T03:10:32.723Z,1019.435473952
2022-11-25T03:11:32.765Z,1019.2322912239999
2022-11-25T03:12:32.907Z,1019.3338825879999
2022-11-25T03:13:32.741Z,1019.435473952
2022-11-25T03:14:32.990Z,1019.3338825879999
2022-11-25T03:15:32.908Z,1019.435473952
2022-11-25T03:16:32.962Z,1019.3338825879999
2022-11-25T03:17:32.804Z,1019.3338825879999
2022-11-25T03:18:32.729Z,1019.6386566799999
2022-11-25T03:19:32.747Z,1019.2322912239999
2022-11-25T03:20:32.703Z,1019.2322912239999
2022-11-25T03:21:32.769Z,1019.3338825879999
2022-11-25T03:22:32.719Z,1019.2322912239999
2022-11-25T03:23:32.895Z,1019.435473952
2022-11-25T03:24:32.936Z,1019.435473952
2022-11-25T03:25:32.896Z,1019.3338825879999
2022-11-25T03:26:32.853Z,1019.435473952
2022-11-25T03:27:32.837Z,1019.2322912239999
2022-11-25T03:28:32.743Z,1019.435473952
2022-11-25T03:29:32.816Z,1019.5370653159999
2022-11-25T03:30:32.820Z,1019.5370653159999
2022-11-25T03:31:33.009Z,1019.3338825879999
2022-11-25T03:32:32.890Z,1019.3338825879999
2022-11-25T03:33:32.842Z,1019.3338825879999
2022-11-25T03:34:32.893Z,1019.3338825879999
2022-11-25T03:35:32.740Z,1019.2322912239999
2022-11-25T03:36:32.797Z,1019.435473952
2022-11-25T03:37:32.747Z,1019.5370653159999
2022-11-25T03:38:32.687Z,1019.3338825879999
2022-11-25T03:39:32.737Z,1019.435473952
2022-11-25T03:40:32.848Z,1019.5370653159999
2022-11-25T03:41:32.892Z,1019.5370653159999
2022-11-25T03:42:32.803Z,1019.3338825879999
2022-11-25T03:43:32.845Z,1019.3338825879999
2022-11-25T03:44:32.955Z,1019.435473952
2022-11-25T03:45:33.098Z,1019.5370653159999
2022-11-25T03:46:32.725Z,1019.2322912239999
2022-11-25T03:47:32.778Z,1019.435473952
2022-11-25T03:48:32.756Z,1019.5370653159999
2022-11-25T03:49:32.783Z,1019.3338825879999
2022-11-25T03:50:32.826Z,1019.3338825879999
2022-11-25T03:51:32.726Z,1019.3338825879999
2022-11-25T03:52:32.717Z,1019.5370653159999
2022-11-25T03:53:32.752Z,1019.435473952
2022-11-25T03:54:32.731Z,1019.5370653159999
2022-11-25T03:55:32.757Z,1019.435473952
2022-11-25T03:56:32.815Z,1019.435473952
2022-11-25T03:57:32.751Z,1019.435473952
2022-11-25T03:58:32.701Z,1019.2322912239999
2022-11-25T03:59:32.724Z,1019.2322912239999
2022-11-25T04:00:32.901Z,1019.3338825879999
2022-11-25T04:01:32.994Z,1019.435473952
2022-11-25T04:02:32.789Z,1019.435473952
2022-11-25T04:03:32.745Z,1019.435473952
2022-11-25T04:04:32.927Z,1019.6386566799999
2022-11-25T04:05:32.745Z,1019.5370653159999
2022-11-25T04:06:32.709Z,1019.3338825879999
2022-11-25T04:07:32.850Z,1019.5370653159999
2022-11-25T04:08:32.714Z,1019.6386566799999
2022-11-25T04:09:32.765Z,1019.435473952
2022-11-25T04:10:32.743Z,1019.6386566799999
2022-11-25T04:11:32.743Z,1019.6386566799999
2022-11-25T04:12:32.883Z,1019.5370653159999
2022-11-25T04:13:32.725Z,1019.435473952
2022-11-25T04:14:32.924Z,1019.3338825879999
2022-11-25T04:15:32.738Z,1019.5370653159999
2022-11-25T04:16:32.769Z,1019.5370653159999
2022-11-25T04:17:32.755Z,1019.5370653159999
2022-11-25T04:18:32.783Z,1019.5370653159999
2022-11-25T04:19:32.725Z,1019.435473952
2022-11-25T04:20:32.714Z,1019.6386566799999
2022-11-25T04:21:32.734Z,1019.6386566799999
2022-11-25T04:22:32.749Z,1019.740248044
2022-11-25T04:23:32.729Z,1019.740248044
2022-11-25T04:24:32.728Z,1019.5370653159999
2022-11-25T04:25:32.695Z,1019.5370653159999
2022-11-25T04:26:32.904Z,1019.5370653159999
2022-11-25T04:27:32.729Z,1019.740248044
2022-11-25T04:28:32.805Z,1019.740248044
2022-11-25T04:29:32.785Z,1019.740248044
2022-11-25T04:30:32.736Z,1019.80797562
2022-11-25T04:31:32.735Z,1019.435473952
2022-11-25T04:32:32.699Z,1019.6386566799999
2022-11-25T04:33:32.730Z,1019.80797562
2022-11-25T04:34:32.880Z,1019.740248044
2022-11-25T04:35:32.747Z,1019.6386566799999
2022-11-25T04:36:32.706Z,1019.80797562
2022-11-25T04:37:32.721Z,1019.740248044
2022-11-25T04:38:32.721Z,1019.80797562
2022-11-25T04:39:32.761Z,1019.80797562
2022-11-25T04:40:32.690Z,1019.740248044
2022-11-25T04:41:32.736Z,1019.6386566799999
2022-11-25T04:42:32.728Z,1019.6386566799999
2022-11-25T04:43:32.748Z,1019.80797562
2022-11-25T04:44:32.728Z,1019.740248044
2022-11-25T04:45:51.609Z,1019.6386566799999
2022-11-25T04:46:32.867Z,1019.740248044
2022-11-25T04:47:32.711Z,1019.80797562
2022-11-25T04:48:32.742Z,1019.740248044
2022-11-25T04:49:32.737Z,1019.740248044
2022-11-25T04:50:32.896Z,1019.80797562
2022-11-25T04:51:32.790Z,1019.6386566799999
2022-11-25T04:52:32.718Z,1019.909566984
2022-11-25T04:53:32.737Z,1019.740248044
2022-11-25T04:54:32.803Z,1019.80797562
2022-11-25T04:55:32.731Z,1019.80797562
2022-11-25T04:56:32.699Z,1019.80797562
2022-11-25T04:57:32.722Z,1019.80797562
2022-11-25T04:58:32.700Z,1019.80797562
2022-11-25T04:59:32.727Z,1019.909566984
2022-11-25T05:00:32.687Z,1019.80797562
2022-11-25T05:01:32.772Z,1019.80797562
2022-11-25T05:02:32.821Z,1019.6386566799999
2022-11-25T05:03:32.720Z,1019.6386566799999
2022-11-25T05:04:32.927Z,1019.80797562
2022-11-25T05:05:32.710Z,1019.80797562
2022-11-25T05:06:32.732Z,1019.740248044
2022-11-25T05:07:32.802Z,1019.740248044
2022-11-25T05:08:32.712Z,1019.909566984
2022-11-25T05:09:32.718Z,1019.6386566799999
2022-11-25T05:10:32.727Z,1019.6386566799999
2022-11-25T05:11:32.723Z,1019.6386566799999
2022-11-25T05:12:32.727Z,1019.80797562
2022-11-25T05:13:32.786Z,1020.0111583479999
2022-11-25T05:14:32.687Z,1019.5370653159999
2022-11-25T05:15:33.536Z,1019.6386566799999
2022-11-25T05:16:32.804Z,1019.80797562
2022-11-25T05:17:32.756Z,1019.6386566799999
2022-11-25T05:18:32.702Z,1019.80797562
2022-11-25T05:19:32.731Z,1019.80797562
2022-11-25T05:20:32.774Z,1019.80797562
2022-11-25T05:21:32.734Z,1019.6386566799999
2022-11-25T05:22:32.702Z,1019.80797562
2022-11-25T05:23:32.710Z,1019.6386566799999
2022-11-25T05:24:33.033Z,1019.740248044
2022-11-25T05:25:32.713Z,1019.80797562
2022-11-25T05:26:32.694Z,1019.6386566799999
2022-11-25T05:27:32.720Z,1019.740248044
2022-11-25T05:28:32.731Z,1019.740248044
2022-11-25T05:29:32.749Z,1019.909566984
2022-11-25T05:30:32.758Z,1019.80797562
2022-11-25T05:31:32.722Z,1019.740248044
2022-11-25T05:32:32.710Z,1019.80797562
2022-11-25T05:33:32.745Z,1019.740248044
2022-11-25T05:34:32.714Z,1019.909566984
2022-11-25T05:35:32.717Z,1019.80797562
2022-11-25T05:36:32.732Z,1019.80797562
2022-11-25T05:37:32.746Z,1019.909566984
2022-11-25T05:38:32.676Z,1019.80797562
2022-11-25T05:39:32.699Z,1019.80797562
2022-11-25T05:40:32.722Z,1019.80797562
2022-11-25T05:41:32.727Z,1019.80797562
2022-11-25T05:42:32.688Z,1019.740248044
2022-11-25T05:43:32.738Z,1019.740248044
2022-11-25T05:44:32.722Z,1019.909566984
2022-11-25T05:45:32.716Z,1019.909566984
2022-11-25T05:46:32.732Z,1019.909566984
2022-11-25T05:47:32.714Z,1019.909566984
2022-11-25T05:48:32.703Z,1019.909566984
2022-11-25T05:49:32.728Z,1020.0111583479999
2022-11-25T05:50:32.703Z,1019.909566984
2022-11-25T05:51:32.721Z,1019.740248044
2022-11-25T05:52:32.866Z,1019.909566984
2022-11-25T05:53:32.800Z,1019.80797562
2022-11-25T05:54:32.699Z,1020.0111583479999
2022-11-25T05:55:32.709Z,1020.112749712
2022-11-25T05:56:32.705Z,1019.909566984
2022-11-25T05:57:32.759Z,1019.909566984
2022-11-25T05:58:32.689Z,1020.0111583479999
2022-11-25T05:59:32.715Z,1019.909566984
2022-11-25T06:00:32.738Z,1020.0111583479999
2022-11-25T06:01:32.737Z,1020.0111583479999
2022-11-25T06:02:32.739Z,1020.0111583479999
2022-11-25T06:03:32.770Z,1020.0111583479999
2022-11-25T06:04:32.722Z,1020.3159324399999
2022-11-25T06:05:32.730Z,1020.112749712
2022-11-25T06:06:32.793Z,1020.112749712
2022-11-25T06:07:32.783Z,1020.214341076
2022-11-25T06:08:32.687Z,1020.417523804
2022-11-25T06:09:32.716Z,1020.0111583479999
2022-11-25T06:10:32.701Z,1020.112749712
2022-11-25T06:11:32.805Z,1020.112749712
2022-11-25T06:12:32.688Z,1020.214341076
2022-11-25T06:13:32.855Z,1020.112749712
2022-11-25T06:14:32.796Z,1020.3159324399999
2022-11-25T06:15:32.827Z,1020.214341076
2022-11-25T06:16:32.776Z,1020.0111583479999
2022-11-25T06:17:32.755Z,1020.3159324399999
2022-11-25T06:18:32.716Z,1020.0111583479999
2022-11-25T06:19:32.766Z,1020.214341076
2022-11-25T06:20:32.683Z,1020.0111583479999
2022-11-25T06:21:32.703Z,1020.112749712
2022-11-25T06:22:32.782Z,1020.0111583479999
2022-11-25T06:23:32.719Z,1020.112749712
2022-11-25T06:24:32.717Z,1020.0111583479999
2022-11-25T06:25:32.824Z,1020.112749712
2022-11-25T06:26:32.748Z,1020.112749712
2022-11-25T06:27:56.744Z,1019.909566984
2022-11-25T06:28:32.755Z,1019.909566984
2022-11-25T06:29:32.725Z,1020.214341076
2022-11-25T06:30:32.799Z,1020.112749712
2022-11-25T06:31:32.787Z,1020.112749712
2022-11-25T06:32:37.323Z,1020.112749712
2022-11-25T06:33:32.713Z,1020.112749712
2022-11-25T06:34:32.921Z,1020.3159324399999
2022-11-25T06:35:32.711Z,1020.3159324399999
2022-11-25T06:36:32.683Z,1020.417523804
2022-11-25T06:37:32.682Z,1020.214341076
2022-11-25T06:38:32.719Z,1019.909566984
2022-11-25T06:39:32.705Z,1020.214341076
2022-11-25T06:40:32.674Z,1020.3159324399999
2022-11-25T06:41:32.895Z,1020.214341076
2022-11-25T06:42:32.709Z,1020.214341076
2022-11-25T06:43:32.728Z,1020.214341076
2022-11-25T06:44:32.767Z,1020.3159324399999
2022-11-25T06:45:32.796Z,1020.214341076
2022-11-25T06:46:32.770Z,1020.3159324399999
2022-11-25T06:47:32.779Z,1020.214341076
2022-11-25T06:48:32.715Z,1020.3159324399999
2022-11-25T06:49:32.720Z,1020.214341076
2022-11-25T06:50:32.728Z,1020.112749712
2022-11-25T06:51:32.839Z,1020.3159324399999
2022-11-25T06:52:32.764Z,1020.214341076
2022-11-25T06:53:32.718Z,1019.909566984
2022-11-25T06:54:32.815Z,1020.214341076
2022-11-25T06:55:32.752Z,1020.214341076
2022-11-25T06:56:32.703Z,1020.214341076
2022-11-25T06:57:32.708Z,1020.0111583479999
2022-11-25T06:58:35.784Z,1020.0111583479999
2022-11-25T06:59:32.706Z,1020.112749712
2022-11-25T07:00:33.067Z,1020.3159324399999
2022-11-25T07:01:32.731Z,1020.214341076
2022-11-25T07:02:39.768Z,1020.112749712
2022-11-25T07:03:32.701Z,1020.3159324399999
2022-11-25T07:04:32.960Z,1020.3159324399999
2022-11-25T07:05:32.730Z,1020.112749712
2022-11-25T07:06:32.717Z,1020.417523804
2022-11-25T07:07:33.001Z,1020.3159324399999
2022-11-25T07:08:34.184Z,1020.214341076
2022-11-25T07:09:32.720Z,1020.112749712
2022-11-25T07:10:32.684Z,1020.3159324399999
2022-11-25T07:11:32.706Z,1020.214341076
2022-11-25T07:12:32.704Z,1020.3159324399999
2022-11-25T07:13:32.731Z,1020.214341076
2022-11-25T07:14:32.685Z,1020.214341076
2022-11-25T07:15:32.722Z,1020.3159324399999
2022-11-25T07:16:32.766Z,1020.3159324399999
2022-11-25T07:17:32.764Z,1020.417523804
2022-11-25T07:18:32.667Z,1020.417523804
2022-11-25T07:19:32.708Z,1020.417523804
2022-11-25T07:20:32.725Z,1020.214341076
2022-11-25T07:21:32.735Z,1020.417523804
2022-11-25T07:22:32.673Z,1020.0111583479999
2022-11-25T07:23:32.710Z,1020.3159324399999
2022-11-25T07:24:32.740Z,1020.3159324399999
2022-11-25T07:25:32.702Z,1020.3159324399999
2022-11-25T07:26:32.718Z,1020.112749712
2022-11-25T07:27:32.730Z,1020.417523804
2022-11-25T07:28:32.764Z,1020.3159324399999
2022-11-25T07:30:00.741Z,1020.3159324399999
2022-11-25T07:31:33.775Z,1020.3159324399999
2022-11-25T07:32:32.711Z,1020.417523804
2022-11-25T07:33:32.755Z,1020.214341076
2022-11-25T07:34:32.648Z,1020.3159324399999
2022-11-25T07:35:32.753Z,1020.3159324399999
2022-11-25T07:36:32.773Z,1020.214341076
2022-11-25T07:37:32.695Z,1020.214341076
2022-11-25T07:38:32.708Z,1020.417523804
2022-11-25T07:39:32.699Z,1020.112749712
2022-11-25T07:40:32.756Z,1020.3159324399999
2022-11-25T07:41:32.697Z,1020.214341076
2022-11-25T07:42:32.691Z,1020.214341076
2022-11-25T07:43:32.716Z,1019.5370653159999
2022-11-25T07:44:32.776Z,1019.6386566799999
2022-11-25T07:45:32.761Z,1020.0111583479999
2022-11-25T07:46:32.746Z,1019.740248044
2022-11-25T07:47:32.777Z,1019.909566984
2022-11-25T07:48:32.698Z,1019.6386566799999
2022-11-25T07:49:32.725Z,1019.80797562
2022-11-25T07:50:32.691Z,1020.214341076
2022-11-25T07:51:32.814Z,1020.214341076
2022-11-25T07:52:32.700Z,1020.112749712
2022-11-25T07:53:32.699Z,1020.112749712
2022-11-25T07:54:32.667Z,1019.909566984
2022-11-25T07:55:32.783Z,1020.214341076
2022-11-25T07:56:32.709Z,1020.112749712
2022-11-25T07:57:32.711Z,1019.909566984
2022-11-25T07:58:32.799Z,1020.3159324399999
2022-11-25T07:59:32.746Z,1020.0111583479999
2022-11-25T08:00:32.708Z,1020.112749712
2022-11-25T08:01:33.843Z,1020.3159324399999
2022-11-25T08:02:35.632Z,1020.112749712
2022-11-25T08:03:39.576Z,1020.214341076
2022-11-25T08:04:43.571Z,1020.214341076
2022-11-25T08:05:47.629Z,1020.214341076
2022-11-25T08:06:51.595Z,1020.214341076
2022-11-25T08:07:55.701Z,1020.112749712
2022-11-25T08:09:00.927Z,1020.214341076
2022-11-25T08:10:04.215Z,1020.214341076
2022-11-25T08:11:07.666Z,1020.214341076
2022-11-25T08:12:11.761Z,1020.0111583479999
2022-11-25T08:13:15.601Z,1020.214341076
2022-11-25T08:14:19.573Z,1020.112749712
2022-11-25T08:15:23.545Z,1020.214341076
2022-11-25T08:16:27.837Z,1020.214341076
2022-11-25T08:17:31.598Z,1020.214341076
2022-11-25T08:18:32.995Z,1020.0111583479999
2022-11-25T08:19:39.921Z,1020.112749712
2022-11-25T08:20:43.557Z,1020.0111583479999
2022-11-25T08:21:47.563Z,1020.112749712
2022-11-25T08:22:51.568Z,1020.112749712
2022-11-25T08:23:55.559Z,1020.112749712
2022-11-25T08:24:59.601Z,1020.0111583479999
2022-11-25T08:26:03.574Z,1020.3159324399999
2022-11-25T08:27:07.623Z,1020.417523804
2022-11-25T08:28:11.566Z,1020.417523804
2022-11-25T08:29:15.644Z,1020.6207065319999
2022-11-25T08:30:19.578Z,1020.6207065319999
2022-11-25T08:31:23.816Z,1020.519115168
2022-11-25T08:32:27.586Z,1020.417523804
2022-11-25T08:33:31.569Z,1020.6207065319999
2022-11-25T08:34:32.700Z,1020.417523804
2022-11-25T08:35:32.728Z,1020.3159324399999
2022-11-25T08:36:32.684Z,1020.214341076
2022-11-25T08:37:32.717Z,1020.722297896
2022-11-25T08:38:32.700Z,1020.417523804
2022-11-25T08:39:53.177Z,1020.722297896
2022-11-25T08:40:32.739Z,1020.6207065319999
2022-11-25T08:41:32.691Z,1020.6207065319999
2022-11-25T08:42:32.717Z,1020.417523804
2022-11-25T08:43:32.724Z,1020.417523804
2022-11-25T08:44:32.692Z,1020.6207065319999
2022-11-25T08:45:32.742Z,1020.82388926
2022-11-25T08:46:32.753Z,1020.722297896
2022-11-25T08:47:32.754Z,1020.722297896
2022-11-25T08:48:32.671Z,1020.82388926
2022-11-25T08:49:36.238Z,1020.722297896
2022-11-25T08:50:32.759Z,1020.6207065319999
2022-11-25T08:51:32.683Z,1020.82388926
2022-11-25T08:52:32.732Z,1020.6207065319999
2022-11-25T08:53:32.697Z,1020.82388926
2022-11-25T08:54:32.686Z,1020.82388926
2022-11-25T08:55:32.700Z,1020.722297896
2022-11-25T08:56:32.757Z,1020.82388926
2022-11-25T08:57:32.695Z,1020.82388926
2022-11-25T08:58:32.701Z,1020.722297896
2022-11-25T08:59:32.719Z,1020.82388926
2022-11-25T09:00:32.669Z,1020.82388926
2022-11-25T09:01:32.756Z,1020.82388926
2022-11-25T09:02:32.795Z,1020.722297896
2022-11-25T09:03:32.748Z,1020.6207065319999
2022-11-25T09:04:32.675Z,1020.6207065319999
2022-11-25T09:05:32.785Z,1020.6207065319999
2022-11-25T09:06:32.700Z,1020.722297896
2022-11-25T09:07:32.748Z,1020.519115168
2022-11-25T09:08:32.720Z,1020.82388926
2022-11-25T09:09:32.713Z,1021.027071988
2022-11-25T09:10:32.726Z,1020.722297896
2022-11-25T09:11:32.826Z,1020.6207065319999
2022-11-25T09:12:32.716Z,1020.82388926
2022-11-25T09:13:32.724Z,1020.722297896
2022-11-25T09:14:32.698Z,1020.722297896
2022-11-25T09:15:32.717Z,1020.722297896
2022-11-25T09:16:32.700Z,1020.519115168
2022-11-25T09:17:32.686Z,1020.722297896
2022-11-25T09:18:32.711Z,1020.722297896
2022-11-25T09:19:32.834Z,1020.6207065319999
2022-11-25T09:20:32.708Z,1020.722297896
2022-11-25T09:21:32.710Z,1020.519115168
2022-11-25T09:22:32.695Z,1020.82388926
2022-11-25T09:23:32.699Z,1020.722297896
2022-11-25T09:24:32.678Z,1020.6207065319999
2022-11-25T09:25:32.778Z,1020.722297896
2022-11-25T09:26:32.711Z,1020.722297896
2022-11-25T09:27:32.717Z,1020.722297896
2022-11-25T09:28:32.730Z,1020.519115168
2022-11-25T09:29:32.842Z,1020.722297896
2022-11-25T09:30:32.750Z,1020.519115168